首页
METAR-TAF:

METAR-TAF

机场 :

安纳巴, 阿尔及利亚

纬度: 36-50N, 经度: 007-49E, 海拔: 4米

当前天气观测

该预报发布于51分钟前的04:00 UTC
风速3节,风向
温度 10°C
湿度 100%
气压 1020 hPa
能见度10公里或以上
少量云层高于2000英尺

METAR: DABB 010400Z 18003KT 9999 FEW020 10/10 Q1020

时间: 05:51 (04:51 UTC)

预报

该预报发布于5小时和51分钟前的23:00 UTC
预报有效从01日的 00点(UTC)到 01日的 24点(UTC)
风速6节,风向
能見度: 4000
散云层高于2000英尺
轻雾
短暂存在
从 01日的 00点(UTC)到 01日的 06点(UTC)
风速2节,风向多变
能見度: 1500
多云层高于1000英尺
轻雾
几率 30% :
短暂存在
从 01日的 00点(UTC)到 01日的 05点(UTC)
能見度: 0400
成为
从 01日的 06点(UTC)到 01日的 08点(UTC)
能見度: 8000
少量云层高于4000英尺
成为
从 01日的 09点(UTC)到 01日的 11点(UTC)
风速8节,风向

TAF: DABB 302300Z 0100/0124 19006KT 4000 BR SCT020 TEMPO 0100/0106 VRB02KT 1500 BR BKN010 PROB30 TEMPO 0100/0105 0400 FG BECMG 0106/0108 8000 FEW040 BECMG 0109/0111 35008KT

超过4000个机场的气象观测和天气预报(METAR&TAF报告)。

可查询的气象台以黄色和红色小点在地图上表示。

将鼠标移到小点上方,可查看气象台名称。

然后点击查看天气观测和预报。

如需切换地图:点击带黑十字的绿色按钮放大地图;点击带横线的绿色按钮缩小地图;或者点击绿色箭头查看邻近地区的地图。


METAR-TAF: